sensor_id;sensor_type;location;lat;lon;timestamp;P1;durP1;ratioP1;P2;durP2;ratioP2
14100;SDS011;7127;49.372;8.166;2022-09-03T00:00:03;2.50;;;0.80;;
14100;SDS011;7127;49.372;8.166;2022-09-03T00:02:40;1.30;;;0.90;;
14100;SDS011;7127;49.372;8.166;2022-09-03T00:05:13;1.00;;;0.80;;
14100;SDS011;7127;49.372;8.166;2022-09-03T00:07:46;1.43;;;0.80;;
14100;SDS011;7127;49.372;8.166;2022-09-03T00:10:20;0.77;;;0.77;;
14100;SDS011;7127;49.372;8.166;2022-09-03T00:12:53;1.60;;;0.77;;
14100;SDS011;7127;49.372;8.166;2022-09-03T00:15:26;0.80;;;0.80;;
14100;SDS011;7127;49.372;8.166;2022-09-03T00:17:56;0.60;;;0.60;;
14100;SDS011;7127;49.372;8.166;2022-09-03T00:20:29;0.97;;;0.80;;
14100;SDS011;7127;49.372;8.166;2022-09-03T00:23:02;0.70;;;0.70;;
14100;SDS011;7127;49.372;8.166;2022-09-03T00:25:33;2.23;;;0.90;;
14100;SDS011;7127;49.372;8.166;2022-09-03T00:28:07;0.70;;;0.70;;
14100;SDS011;7127;49.372;8.166;2022-09-03T00:30:41;1.33;;;0.80;;
14100;SDS011;7127;49.372;8.166;2022-09-03T00:33:11;0.73;;;0.60;;
14100;SDS011;7127;49.372;8.166;2022-09-03T00:35:46;1.20;;;0.80;;
14100;SDS011;7127;49.372;8.166;2022-09-03T00:38:21;0.73;;;0.70;;
14100;SDS011;7127;49.372;8.166;2022-09-03T00:40:52;0.53;;;0.53;;
14100;SDS011;7127;49.372;8.166;2022-09-03T00:43:33;0.60;;;0.60;;
14100;SDS011;7127;49.372;8.166;2022-09-03T00:46:14;0.70;;;0.70;;
14100;SDS011;7127;49.372;8.166;2022-09-03T00:48:52;0.93;;;0.53;;
14100;SDS011;7127;49.372;8.166;2022-09-03T00:51:33;1.00;;;0.70;;
14100;SDS011;7127;49.372;8.166;2022-09-03T00:54:09;0.53;;;0.53;;
14100;SDS011;7127;49.372;8.166;2022-09-03T00:56:47;0.70;;;0.70;;
14100;SDS011;7127;49.372;8.166;2022-09-03T00:59:24;0.60;;;0.57;;
14100;SDS011;7127;49.372;8.166;2022-09-03T01:02:02;0.70;;;0.70;;
14100;SDS011;7127;49.372;8.166;2022-09-03T01:04:41;1.03;;;0.70;;
14100;SDS011;7127;49.372;8.166;2022-09-03T01:07:17;0.97;;;0.80;;
14100;SDS011;7127;49.372;8.166;2022-09-03T01:09:58;1.30;;;0.80;;
14100;SDS011;7127;49.372;8.166;2022-09-03T01:12:39;0.60;;;0.60;;
14100;SDS011;7127;49.372;8.166;2022-09-03T01:15:14;0.83;;;0.43;;
14100;SDS011;7127;49.372;8.166;2022-09-03T01:17:52;1.30;;;0.70;;
14100;SDS011;7127;49.372;8.166;2022-09-03T01:20:35;1.00;;;0.70;;
14100;SDS011;7127;49.372;8.166;2022-09-03T01:26:15;0.90;;;0.70;;
14100;SDS011;7127;49.372;8.166;2022-09-03T01:28:59;0.70;;;0.70;;
14100;SDS011;7127;49.372;8.166;2022-09-03T01:31:33;0.50;;;0.50;;
14100;SDS011;7127;49.372;8.166;2022-09-03T01:34:14;0.90;;;0.60;;
14100;SDS011;7127;49.372;8.166;2022-09-03T01:36:50;1.17;;;0.80;;
14100;SDS011;7127;49.372;8.166;2022-09-03T01:39:28;1.30;;;0.60;;
14100;SDS011;7127;49.372;8.166;2022-09-03T01:42:06;0.50;;;0.50;;
14100;SDS011;7127;49.372;8.166;2022-09-03T01:45:02;0.50;;;0.50;;
14100;SDS011;7127;49.372;8.166;2022-09-03T01:48:00;0.60;;;0.60;;
14100;SDS011;7127;49.372;8.166;2022-09-03T01:50:40;1.37;;;0.80;;
14100;SDS011;7127;49.372;8.166;2022-09-03T01:53:14;0.87;;;0.80;;
14100;SDS011;7127;49.372;8.166;2022-09-03T01:55:57;0.80;;;0.80;;
14100;SDS011;7127;49.372;8.166;2022-09-03T01:58:43;0.73;;;0.70;;
14100;SDS011;7127;49.372;8.166;2022-09-03T02:01:18;0.60;;;0.60;;
14100;SDS011;7127;49.372;8.166;2022-09-03T02:03:50;1.57;;;0.80;;
14100;SDS011;7127;49.372;8.166;2022-09-03T02:06:23;0.70;;;0.60;;
14100;SDS011;7127;49.372;8.166;2022-09-03T02:08:51;0.70;;;0.70;;
14100;SDS011;7127;49.372;8.166;2022-09-03T02:11:18;0.50;;;0.50;;
14100;SDS011;7127;49.372;8.166;2022-09-03T02:13:46;0.77;;;0.63;;
14100;SDS011;7127;49.372;8.166;2022-09-03T02:16:20;0.50;;;0.50;;
14100;SDS011;7127;49.372;8.166;2022-09-03T02:18:50;0.50;;;0.50;;
14100;SDS011;7127;49.372;8.166;2022-09-03T02:21:20;0.83;;;0.80;;
14100;SDS011;7127;49.372;8.166;2022-09-03T02:23:49;1.67;;;0.53;;
14100;SDS011;7127;49.372;8.166;2022-09-03T02:26:17;0.87;;;0.80;;
14100;SDS011;7127;49.372;8.166;2022-09-03T05:26:48;1.03;;;0.70;;
14100;SDS011;7127;49.372;8.166;2022-09-03T05:37:20;0.90;;;0.80;;
14100;SDS011;7127;49.372;8.166;2022-09-03T05:39:53;0.80;;;0.77;;
14100;SDS011;7127;49.372;8.166;2022-09-03T05:45:09;0.63;;;0.63;;
14100;SDS011;7127;49.372;8.166;2022-09-03T05:47:38;0.97;;;0.90;;
14100;SDS011;7127;49.372;8.166;2022-09-03T05:52:48;2.20;;;0.90;;
14100;SDS011;7127;49.372;8.166;2022-09-03T05:55:16;1.60;;;0.90;;
14100;SDS011;7127;49.372;8.166;2022-09-03T06:34:20;0.87;;;0.87;;
14100;SDS011;7127;49.372;8.166;2022-09-03T06:36:50;0.80;;;0.80;;
14100;SDS011;7127;49.372;8.166;2022-09-03T06:39:17;1.00;;;0.90;;
14100;SDS011;7127;49.372;8.166;2022-09-03T06:41:45;0.97;;;0.97;;
14100;SDS011;7127;49.372;8.166;2022-09-03T06:44:16;1.63;;;1.17;;
14100;SDS011;7127;49.372;8.166;2022-09-03T06:46:43;0.80;;;0.80;;
14100;SDS011;7127;49.372;8.166;2022-09-03T06:49:11;1.13;;;0.80;;
14100;SDS011;7127;49.372;8.166;2022-09-03T07:22:44;1.20;;;1.10;;
14100;SDS011;7127;49.372;8.166;2022-09-03T07:25:12;3.67;;;1.20;;
14100;SDS011;7127;49.372;8.166;2022-09-03T07:27:40;1.10;;;1.00;;
14100;SDS011;7127;49.372;8.166;2022-09-03T07:30:22;0.70;;;0.70;;
14100;SDS011;7127;49.372;8.166;2022-09-03T07:32:58;1.70;;;0.97;;
14100;SDS011;7127;49.372;8.166;2022-09-03T07:35:28;1.70;;;0.90;;
14100;SDS011;7127;49.372;8.166;2022-09-03T07:37:57;0.70;;;0.67;;
14100;SDS011;7127;49.372;8.166;2022-09-03T07:40:24;0.97;;;0.90;;
14100;SDS011;7127;49.372;8.166;2022-09-03T07:42:55;0.87;;;0.80;;
14100;SDS011;7127;49.372;8.166;2022-09-03T07:45:28;0.97;;;0.90;;
14100;SDS011;7127;49.372;8.166;2022-09-03T07:47:57;0.80;;;0.80;;
14100;SDS011;7127;49.372;8.166;2022-09-03T07:50:24;0.90;;;0.60;;
14100;SDS011;7127;49.372;8.166;2022-09-03T07:52:54;0.83;;;0.83;;
14100;SDS011;7127;49.372;8.166;2022-09-03T07:55:24;1.47;;;1.00;;
14100;SDS011;7127;49.372;8.166;2022-09-03T07:57:54;1.10;;;0.83;;
14100;SDS011;7127;49.372;8.166;2022-09-03T08:00:23;1.00;;;0.90;;
14100;SDS011;7127;49.372;8.166;2022-09-03T08:02:50;1.03;;;0.93;;
14100;SDS011;7127;49.372;8.166;2022-09-03T08:05:18;1.30;;;1.00;;
14100;SDS011;7127;49.372;8.166;2022-09-03T08:15:53;1.17;;;0.93;;
14100;SDS011;7127;49.372;8.166;2022-09-03T08:18:25;1.30;;;1.20;;
14100;SDS011;7127;49.372;8.166;2022-09-03T08:21:18;0.80;;;0.80;;
14100;SDS011;7127;49.372;8.166;2022-09-03T08:24:01;0.80;;;0.80;;
14100;SDS011;7127;49.372;8.166;2022-09-03T08:26:30;1.97;;;1.13;;
14100;SDS011;7127;49.372;8.166;2022-09-03T08:28:59;1.23;;;0.90;;
14100;SDS011;7127;49.372;8.166;2022-09-03T08:31:28;0.90;;;0.90;;
14100;SDS011;7127;49.372;8.166;2022-09-03T08:33:58;1.20;;;1.10;;
14100;SDS011;7127;49.372;8.166;2022-09-03T08:36:31;0.80;;;0.80;;
14100;SDS011;7127;49.372;8.166;2022-09-03T12:11:05;0.80;;;0.80;;
14100;SDS011;7127;49.372;8.166;2022-09-03T12:13:45;1.20;;;1.10;;
14100;SDS011;7127;49.372;8.166;2022-09-03T12:16:26;1.40;;;1.30;;
14100;SDS011;7127;49.372;8.166;2022-09-03T12:19:15;1.57;;;1.13;;
14100;SDS011;7127;49.372;8.166;2022-09-03T12:21:49;1.33;;;1.10;;
14100;SDS011;7127;49.372;8.166;2022-09-03T12:24:17;1.20;;;1.10;;
14100;SDS011;7127;49.372;8.166;2022-09-03T12:26:46;0.83;;;0.83;;
14100;SDS011;7127;49.372;8.166;2022-09-03T12:29:21;1.23;;;1.10;;
14100;SDS011;7127;49.372;8.166;2022-09-03T12:31:49;1.07;;;1.03;;
14100;SDS011;7127;49.372;8.166;2022-09-03T12:34:17;1.20;;;1.10;;
14100;SDS011;7127;49.372;8.166;2022-09-03T12:36:46;1.10;;;1.10;;
14100;SDS011;7127;49.372;8.166;2022-09-03T12:39:16;1.20;;;1.10;;
14100;SDS011;7127;49.372;8.166;2022-09-03T12:41:57;1.13;;;1.00;;
14100;SDS011;7127;49.372;8.166;2022-09-03T12:44:28;0.80;;;0.80;;
14100;SDS011;7127;49.372;8.166;2022-09-03T12:47:00;0.80;;;0.80;;
14100;SDS011;7127;49.372;8.166;2022-09-03T12:49:33;1.43;;;1.30;;
14100;SDS011;7127;49.372;8.166;2022-09-03T12:52:03;1.27;;;0.97;;
14100;SDS011;7127;49.372;8.166;2022-09-03T12:54:35;1.35;;;1.10;;
14100;SDS011;7127;49.372;8.166;2022-09-03T12:57:09;2.17;;;0.90;;
14100;SDS011;7127;49.372;8.166;2022-09-03T12:59:45;0.90;;;0.90;;
14100;SDS011;7127;49.372;8.166;2022-09-03T13:02:17;0.80;;;0.80;;
14100;SDS011;7127;49.372;8.166;2022-09-03T13:04:48;0.90;;;0.90;;
14100;SDS011;7127;49.372;8.166;2022-09-03T13:07:20;1.05;;;0.95;;
14100;SDS011;7127;49.372;8.166;2022-09-03T13:09:51;1.00;;;1.00;;
14100;SDS011;7127;49.372;8.166;2022-09-03T13:12:34;0.93;;;0.90;;
14100;SDS011;7127;49.372;8.166;2022-09-03T13:15:17;0.80;;;0.80;;
14100;SDS011;7127;49.372;8.166;2022-09-03T13:17:52;1.10;;;1.00;;
14100;SDS011;7127;49.372;8.166;2022-09-03T13:20:36;1.40;;;1.30;;
14100;SDS011;7127;49.372;8.166;2022-09-03T13:23:28;0.90;;;0.90;;
14100;SDS011;7127;49.372;8.166;2022-09-03T13:26:20;1.08;;;0.98;;
14100;SDS011;7127;49.372;8.166;2022-09-03T13:29:03;0.90;;;0.90;;
14100;SDS011;7127;49.372;8.166;2022-09-03T13:31:43;0.87;;;0.87;;
14100;SDS011;7127;49.372;8.166;2022-09-03T13:34:15;1.13;;;1.00;;
14100;SDS011;7127;49.372;8.166;2022-09-03T13:36:48;1.75;;;1.15;;
14100;SDS011;7127;49.372;8.166;2022-09-03T13:39:21;0.90;;;0.90;;
14100;SDS011;7127;49.372;8.166;2022-09-03T13:42:08;0.70;;;0.70;;
14100;SDS011;7127;49.372;8.166;2022-09-03T13:44:46;0.93;;;0.93;;
14100;SDS011;7127;49.372;8.166;2022-09-03T13:47:21;0.82;;;0.82;;
14100;SDS011;7127;49.372;8.166;2022-09-03T13:49:55;0.90;;;0.90;;
14100;SDS011;7127;49.372;8.166;2022-09-03T13:53:01;1.10;;;1.00;;
14100;SDS011;7127;49.372;8.166;2022-09-03T13:55:42;0.80;;;0.80;;
14100;SDS011;7127;49.372;8.166;2022-09-03T13:58:17;1.10;;;1.10;;
14100;SDS011;7127;49.372;8.166;2022-09-03T14:00:51;1.05;;;0.90;;
14100;SDS011;7127;49.372;8.166;2022-09-03T14:03:30;1.02;;;0.93;;
14100;SDS011;7127;49.372;8.166;2022-09-03T14:06:01;0.85;;;0.85;;
14100;SDS011;7127;49.372;8.166;2022-09-03T14:08:36;1.27;;;0.90;;
14100;SDS011;7127;49.372;8.166;2022-09-03T14:11:19;0.90;;;0.90;;
14100;SDS011;7127;49.372;8.166;2022-09-03T14:13:56;1.10;;;1.00;;
14100;SDS011;7127;49.372;8.166;2022-09-03T14:16:39;0.77;;;0.77;;
14100;SDS011;7127;49.372;8.166;2022-09-03T14:19:10;1.13;;;1.00;;
14100;SDS011;7127;49.372;8.166;2022-09-03T14:21:43;1.20;;;0.98;;
14100;SDS011;7127;49.372;8.166;2022-09-03T14:24:16;1.17;;;1.08;;
14100;SDS011;7127;49.372;8.166;2022-09-03T14:26:50;1.20;;;1.10;;
14100;SDS011;7127;49.372;8.166;2022-09-03T14:29:22;0.90;;;0.90;;
14100;SDS011;7127;49.372;8.166;2022-09-03T14:31:57;1.20;;;1.10;;
14100;SDS011;7127;49.372;8.166;2022-09-03T14:34:37;1.58;;;1.40;;
14100;SDS011;7127;49.372;8.166;2022-09-03T14:37:28;1.10;;;1.10;;
14100;SDS011;7127;49.372;8.166;2022-09-03T14:40:10;1.40;;;1.30;;
14100;SDS011;7127;49.372;8.166;2022-09-03T14:42:46;2.05;;;1.10;;
14100;SDS011;7127;49.372;8.166;2022-09-03T14:45:45;2.15;;;1.30;;
14100;SDS011;7127;49.372;8.166;2022-09-03T14:48:29;1.40;;;1.00;;
14100;SDS011;7127;49.372;8.166;2022-09-03T14:51:17;1.07;;;1.00;;
14100;SDS011;7127;49.372;8.166;2022-09-03T14:54:13;0.75;;;0.75;;
14100;SDS011;7127;49.372;8.166;2022-09-03T14:57:06;1.83;;;0.70;;
14100;SDS011;7127;49.372;8.166;2022-09-03T14:59:51;0.75;;;0.57;;
14100;SDS011;7127;49.372;8.166;2022-09-03T15:02:50;1.83;;;1.00;;
14100;SDS011;7127;49.372;8.166;2022-09-03T15:05:43;1.10;;;0.97;;
14100;SDS011;7127;49.372;8.166;2022-09-03T15:08:19;1.10;;;1.00;;
14100;SDS011;7127;49.372;8.166;2022-09-03T15:11:12;0.90;;;0.90;;
14100;SDS011;7127;49.372;8.166;2022-09-03T15:13:44;1.10;;;1.00;;
14100;SDS011;7127;49.372;8.166;2022-09-03T15:16:18;0.90;;;0.90;;
14100;SDS011;7127;49.372;8.166;2022-09-03T15:18:58;1.00;;;0.83;;
14100;SDS011;7127;49.372;8.166;2022-09-03T15:21:53;1.00;;;0.83;;
14100;SDS011;7127;49.372;8.166;2022-09-03T15:24:36;1.93;;;1.10;;
14100;SDS011;7127;49.372;8.166;2022-09-03T15:27:14;3.03;;;0.90;;
14100;SDS011;7127;49.372;8.166;2022-09-03T15:29:50;0.90;;;0.90;;
14100;SDS011;7127;49.372;8.166;2022-09-03T15:32:28;1.07;;;0.97;;
14100;SDS011;7127;49.372;8.166;2022-09-03T15:35:05;2.10;;;1.20;;
14100;SDS011;7127;49.372;8.166;2022-09-03T15:37:46;1.20;;;1.10;;
14100;SDS011;7127;49.372;8.166;2022-09-03T15:40:21;2.63;;;1.53;;
14100;SDS011;7127;49.372;8.166;2022-09-03T15:42:54;1.80;;;1.00;;
14100;SDS011;7127;49.372;8.166;2022-09-03T15:45:30;1.00;;;0.90;;
14100;SDS011;7127;49.372;8.166;2022-09-03T15:48:04;1.43;;;1.10;;
14100;SDS011;7127;49.372;8.166;2022-09-03T15:50:47;1.23;;;1.13;;
14100;SDS011;7127;49.372;8.166;2022-09-03T15:56:24;1.33;;;1.17;;
14100;SDS011;7127;49.372;8.166;2022-09-03T15:59:02;3.03;;;1.13;;
14100;SDS011;7127;49.372;8.166;2022-09-03T16:01:35;1.10;;;1.00;;
14100;SDS011;7127;49.372;8.166;2022-09-03T16:04:21;1.97;;;1.20;;
14100;SDS011;7127;49.372;8.166;2022-09-03T16:07:01;1.40;;;1.20;;
14100;SDS011;7127;49.372;8.166;2022-09-03T16:09:37;1.43;;;1.00;;
14100;SDS011;7127;49.372;8.166;2022-09-03T16:12:17;1.20;;;1.10;;
14100;SDS011;7127;49.372;8.166;2022-09-03T16:14:56;1.20;;;1.10;;
14100;SDS011;7127;49.372;8.166;2022-09-03T16:17:30;1.73;;;1.40;;
14100;SDS011;7127;49.372;8.166;2022-09-03T16:20:01;1.10;;;1.00;;
14100;SDS011;7127;49.372;8.166;2022-09-03T16:22:31;1.30;;;1.20;;
14100;SDS011;7127;49.372;8.166;2022-09-03T16:25:07;1.53;;;1.33;;
14100;SDS011;7127;49.372;8.166;2022-09-03T16:27:39;1.77;;;1.10;;
14100;SDS011;7127;49.372;8.166;2022-09-03T16:30:20;1.20;;;1.10;;
14100;SDS011;7127;49.372;8.166;2022-09-03T16:32:58;1.27;;;1.17;;
14100;SDS011;7127;49.372;8.166;2022-09-03T16:35:37;1.07;;;1.00;;
14100;SDS011;7127;49.372;8.166;2022-09-03T16:38:15;1.10;;;1.10;;
14100;SDS011;7127;49.372;8.166;2022-09-03T16:40:53;1.53;;;1.30;;
14100;SDS011;7127;49.372;8.166;2022-09-03T16:43:26;1.40;;;1.30;;
14100;SDS011;7127;49.372;8.166;2022-09-03T16:46:03;1.40;;;1.23;;
14100;SDS011;7127;49.372;8.166;2022-09-03T16:48:40;1.40;;;1.20;;
14100;SDS011;7127;49.372;8.166;2022-09-03T16:51:15;1.60;;;1.13;;
14100;SDS011;7127;49.372;8.166;2022-09-03T16:54:00;1.60;;;1.30;;
14100;SDS011;7127;49.372;8.166;2022-09-03T16:56:40;1.50;;;1.27;;
14100;SDS011;7127;49.372;8.166;2022-09-03T17:02:16;1.20;;;1.10;;
14100;SDS011;7127;49.372;8.166;2022-09-03T17:05:02;1.30;;;1.20;;
14100;SDS011;7127;49.372;8.166;2022-09-03T17:07:51;2.27;;;1.50;;
14100;SDS011;7127;49.372;8.166;2022-09-03T17:10:26;1.07;;;1.03;;
14100;SDS011;7127;49.372;8.166;2022-09-03T17:13:10;1.73;;;1.40;;
14100;SDS011;7127;49.372;8.166;2022-09-03T17:16:07;1.60;;;1.50;;
14100;SDS011;7127;49.372;8.166;2022-09-03T17:18:44;1.70;;;1.50;;
14100;SDS011;7127;49.372;8.166;2022-09-03T17:21:25;1.47;;;1.37;;
14100;SDS011;7127;49.372;8.166;2022-09-03T17:24:15;1.40;;;1.30;;
14100;SDS011;7127;49.372;8.166;2022-09-03T17:26:51;1.80;;;1.60;;
14100;SDS011;7127;49.372;8.166;2022-09-03T17:29:32;1.80;;;1.30;;
14100;SDS011;7127;49.372;8.166;2022-09-03T17:32:12;1.23;;;1.17;;
14100;SDS011;7127;49.372;8.166;2022-09-03T17:34:51;1.57;;;1.27;;
14100;SDS011;7127;49.372;8.166;2022-09-03T17:37:33;1.20;;;1.10;;
14100;SDS011;7127;49.372;8.166;2022-09-03T17:40:22;1.40;;;1.30;;
14100;SDS011;7127;49.372;8.166;2022-09-03T17:42:55;1.17;;;1.07;;
14100;SDS011;7127;49.372;8.166;2022-09-03T17:45:43;1.57;;;1.20;;
14100;SDS011;7127;49.372;8.166;2022-09-03T17:48:28;1.20;;;0.93;;
14100;SDS011;7127;49.372;8.166;2022-09-03T17:51:16;1.07;;;0.97;;
14100;SDS011;7127;49.372;8.166;2022-09-03T17:53:59;1.67;;;1.10;;
14100;SDS011;7127;49.372;8.166;2022-09-03T17:56:32;1.20;;;1.10;;
14100;SDS011;7127;49.372;8.166;2022-09-03T17:59:10;1.07;;;1.00;;
14100;SDS011;7127;49.372;8.166;2022-09-03T18:01:47;1.37;;;1.13;;
14100;SDS011;7127;49.372;8.166;2022-09-03T18:04:27;0.97;;;0.97;;
14100;SDS011;7127;49.372;8.166;2022-09-03T18:07:04;0.90;;;0.90;;
14100;SDS011;7127;49.372;8.166;2022-09-03T18:09:40;1.20;;;1.10;;
14100;SDS011;7127;49.372;8.166;2022-09-03T18:12:16;1.50;;;1.20;;
14100;SDS011;7127;49.372;8.166;2022-09-03T18:14:55;1.10;;;1.00;;
14100;SDS011;7127;49.372;8.166;2022-09-03T18:17:32;0.60;;;0.60;;
14100;SDS011;7127;49.372;8.166;2022-09-03T18:20:04;1.33;;;1.23;;
14100;SDS011;7127;49.372;8.166;2022-09-03T18:22:52;1.20;;;1.10;;
14100;SDS011;7127;49.372;8.166;2022-09-03T18:25:43;1.00;;;1.00;;
14100;SDS011;7127;49.372;8.166;2022-09-03T18:28:33;1.20;;;1.10;;
14100;SDS011;7127;49.372;8.166;2022-09-03T18:31:22;1.27;;;1.17;;
14100;SDS011;7127;49.372;8.166;2022-09-03T18:34:08;1.30;;;1.20;;
14100;SDS011;7127;49.372;8.166;2022-09-03T18:36:55;1.80;;;0.90;;
14100;SDS011;7127;49.372;8.166;2022-09-03T18:39:40;1.30;;;1.20;;
14100;SDS011;7127;49.372;8.166;2022-09-03T18:42:28;1.00;;;0.90;;
14100;SDS011;7127;49.372;8.166;2022-09-03T18:45:25;1.40;;;1.00;;
14100;SDS011;7127;49.372;8.166;2022-09-03T18:48:16;1.30;;;1.20;;
14100;SDS011;7127;49.372;8.166;2022-09-03T18:51:09;0.90;;;0.90;;
14100;SDS011;7127;49.372;8.166;2022-09-03T18:54:06;1.30;;;0.97;;
14100;SDS011;7127;49.372;8.166;2022-09-03T18:57:00;1.30;;;1.17;;
14100;SDS011;7127;49.372;8.166;2022-09-03T19:00:01;1.20;;;1.10;;
14100;SDS011;7127;49.372;8.166;2022-09-03T19:02:56;1.10;;;1.07;;
14100;SDS011;7127;49.372;8.166;2022-09-03T19:05:56;1.20;;;1.10;;
14100;SDS011;7127;49.372;8.166;2022-09-03T19:08:48;1.43;;;1.33;;
14100;SDS011;7127;49.372;8.166;2022-09-03T19:11:44;1.63;;;1.10;;
14100;SDS011;7127;49.372;8.166;2022-09-03T19:14:39;2.20;;;1.10;;
14100;SDS011;7127;49.372;8.166;2022-09-03T19:17:32;1.00;;;1.00;;
14100;SDS011;7127;49.372;8.166;2022-09-03T19:20:32;1.33;;;1.23;;
14100;SDS011;7127;49.372;8.166;2022-09-03T19:23:19;1.13;;;1.03;;
14100;SDS011;7127;49.372;8.166;2022-09-03T19:26:09;1.03;;;1.03;;
14100;SDS011;7127;49.372;8.166;2022-09-03T19:29:05;1.63;;;1.30;;
14100;SDS011;7127;49.372;8.166;2022-09-03T19:31:58;1.93;;;1.40;;
14100;SDS011;7127;49.372;8.166;2022-09-03T19:34:54;1.50;;;1.40;;
14100;SDS011;7127;49.372;8.166;2022-09-03T19:37:54;2.00;;;1.10;;
14100;SDS011;7127;49.372;8.166;2022-09-03T19:40:56;1.60;;;1.50;;
14100;SDS011;7127;49.372;8.166;2022-09-03T19:43:55;1.63;;;1.27;;
14100;SDS011;7127;49.372;8.166;2022-09-03T19:46:54;2.13;;;1.30;;
14100;SDS011;7127;49.372;8.166;2022-09-03T19:49:44;1.50;;;1.40;;
14100;SDS011;7127;49.372;8.166;2022-09-03T19:52:43;1.30;;;1.20;;
14100;SDS011;7127;49.372;8.166;2022-09-03T19:55:32;1.47;;;1.33;;
14100;SDS011;7127;49.372;8.166;2022-09-03T19:58:22;3.43;;;1.60;;
14100;SDS011;7127;49.372;8.166;2022-09-03T20:03:47;1.67;;;1.53;;
14100;SDS011;7127;49.372;8.166;2022-09-03T20:06:33;1.40;;;1.30;;
14100;SDS011;7127;49.372;8.166;2022-09-03T20:09:19;2.20;;;1.87;;
14100;SDS011;7127;49.372;8.166;2022-09-03T20:12:08;2.13;;;1.83;;
14100;SDS011;7127;49.372;8.166;2022-09-03T20:14:38;1.40;;;1.30;;
14100;SDS011;7127;49.372;8.166;2022-09-03T20:17:11;1.53;;;1.43;;
14100;SDS011;7127;49.372;8.166;2022-09-03T20:19:48;1.57;;;1.47;;
14100;SDS011;7127;49.372;8.166;2022-09-03T20:22:26;1.70;;;1.60;;
14100;SDS011;7127;49.372;8.166;2022-09-03T20:25:02;1.50;;;1.40;;
14100;SDS011;7127;49.372;8.166;2022-09-03T20:27:44;1.77;;;1.60;;
14100;SDS011;7127;49.372;8.166;2022-09-03T20:30:25;1.70;;;1.60;;
14100;SDS011;7127;49.372;8.166;2022-09-03T20:35:58;1.67;;;1.57;;
14100;SDS011;7127;49.372;8.166;2022-09-03T20:38:56;1.80;;;1.70;;
14100;SDS011;7127;49.372;8.166;2022-09-03T20:41:35;1.50;;;1.40;;
14100;SDS011;7127;49.372;8.166;2022-09-03T20:44:14;1.83;;;1.67;;
14100;SDS011;7127;49.372;8.166;2022-09-03T20:46:53;1.70;;;1.60;;
14100;SDS011;7127;49.372;8.166;2022-09-03T20:49:36;1.80;;;1.70;;
14100;SDS011;7127;49.372;8.166;2022-09-03T20:52:17;1.80;;;1.70;;
14100;SDS011;7127;49.372;8.166;2022-09-03T20:54:52;1.67;;;1.57;;
14100;SDS011;7127;49.372;8.166;2022-09-03T20:57:38;1.93;;;1.70;;
14100;SDS011;7127;49.372;8.166;2022-09-03T21:00:11;1.60;;;1.50;;
14100;SDS011;7127;49.372;8.166;2022-09-03T21:02:50;3.10;;;1.57;;
14100;SDS011;7127;49.372;8.166;2022-09-03T21:05:40;1.77;;;1.63;;
14100;SDS011;7127;49.372;8.166;2022-09-03T21:11:14;1.63;;;1.53;;
14100;SDS011;7127;49.372;8.166;2022-09-03T21:13:47;1.87;;;1.70;;
14100;SDS011;7127;49.372;8.166;2022-09-03T21:16:23;1.77;;;1.67;;
14100;SDS011;7127;49.372;8.166;2022-09-03T21:19:01;1.73;;;1.60;;
14100;SDS011;7127;49.372;8.166;2022-09-03T21:21:39;1.63;;;1.53;;
14100;SDS011;7127;49.372;8.166;2022-09-03T21:24:14;1.80;;;1.70;;
14100;SDS011;7127;49.372;8.166;2022-09-03T21:26:47;1.67;;;1.57;;
14100;SDS011;7127;49.372;8.166;2022-09-03T21:29:20;1.43;;;1.33;;
14100;SDS011;7127;49.372;8.166;2022-09-03T21:31:53;1.83;;;1.70;;
14100;SDS011;7127;49.372;8.166;2022-09-03T21:34:26;1.70;;;1.60;;
14100;SDS011;7127;49.372;8.166;2022-09-03T21:36:55;3.13;;;1.30;;
14100;SDS011;7127;49.372;8.166;2022-09-03T21:39:25;1.67;;;1.40;;
14100;SDS011;7127;49.372;8.166;2022-09-03T21:41:59;1.57;;;1.47;;
14100;SDS011;7127;49.372;8.166;2022-09-03T21:44:40;2.40;;;1.63;;
14100;SDS011;7127;49.372;8.166;2022-09-03T21:47:12;1.37;;;1.27;;
14100;SDS011;7127;49.372;8.166;2022-09-03T21:49:50;2.43;;;1.53;;
14100;SDS011;7127;49.372;8.166;2022-09-03T21:52:22;1.50;;;1.40;;
14100;SDS011;7127;49.372;8.166;2022-09-03T21:54:54;1.70;;;1.50;;
14100;SDS011;7127;49.372;8.166;2022-09-03T21:57:23;1.30;;;1.20;;
14100;SDS011;7127;49.372;8.166;2022-09-03T22:00:12;1.30;;;1.20;;
14100;SDS011;7127;49.372;8.166;2022-09-03T22:02:43;1.57;;;1.20;;
14100;SDS011;7127;49.372;8.166;2022-09-03T22:05:11;1.50;;;1.40;;
14100;SDS011;7127;49.372;8.166;2022-09-03T22:10:33;1.40;;;1.30;;
14100;SDS011;7127;49.372;8.166;2022-09-03T22:13:12;1.47;;;1.37;;
14100;SDS011;7127;49.372;8.166;2022-09-03T22:15:47;1.20;;;1.20;;
14100;SDS011;7127;49.372;8.166;2022-09-03T22:18:18;1.23;;;1.13;;
14100;SDS011;7127;49.372;8.166;2022-09-03T22:20:50;1.17;;;1.10;;
14100;SDS011;7127;49.372;8.166;2022-09-03T22:23:27;1.40;;;1.30;;
14100;SDS011;7127;49.372;8.166;2022-09-03T22:26:08;1.40;;;1.30;;
14100;SDS011;7127;49.372;8.166;2022-09-03T22:28:51;1.27;;;1.17;;
14100;SDS011;7127;49.372;8.166;2022-09-03T22:31:29;1.37;;;1.27;;
14100;SDS011;7127;49.372;8.166;2022-09-03T22:34:07;1.20;;;1.10;;
14100;SDS011;7127;49.372;8.166;2022-09-03T22:36:46;1.40;;;1.30;;
14100;SDS011;7127;49.372;8.166;2022-09-03T22:39:19;1.77;;;1.30;;
14100;SDS011;7127;49.372;8.166;2022-09-03T22:42:07;2.00;;;1.47;;
14100;SDS011;7127;49.372;8.166;2022-09-03T22:47:48;1.73;;;1.50;;
14100;SDS011;7127;49.372;8.166;2022-09-03T22:50:25;1.50;;;1.27;;
14100;SDS011;7127;49.372;8.166;2022-09-03T22:53:00;2.07;;;1.60;;
14100;SDS011;7127;49.372;8.166;2022-09-03T22:55:35;1.50;;;1.40;;
14100;SDS011;7127;49.372;8.166;2022-09-03T22:58:07;1.60;;;1.40;;
14100;SDS011;7127;49.372;8.166;2022-09-03T23:00:41;1.50;;;1.40;;
14100;SDS011;7127;49.372;8.166;2022-09-03T23:03:15;1.20;;;1.10;;
14100;SDS011;7127;49.372;8.166;2022-09-03T23:05:49;1.57;;;1.40;;
14100;SDS011;7127;49.372;8.166;2022-09-03T23:08:21;1.43;;;1.33;;
14100;SDS011;7127;49.372;8.166;2022-09-03T23:10:55;1.57;;;1.33;;
14100;SDS011;7127;49.372;8.166;2022-09-03T23:13:29;1.27;;;1.17;;
14100;SDS011;7127;49.372;8.166;2022-09-03T23:16:04;1.20;;;1.10;;
14100;SDS011;7127;49.372;8.166;2022-09-03T23:18:36;1.97;;;1.23;;
14100;SDS011;7127;49.372;8.166;2022-09-03T23:21:17;1.83;;;1.10;;
14100;SDS011;7127;49.372;8.166;2022-09-03T23:23:51;1.93;;;1.30;;
14100;SDS011;7127;49.372;8.166;2022-09-03T23:26:25;1.33;;;1.23;;
14100;SDS011;7127;49.372;8.166;2022-09-03T23:29:02;1.37;;;1.27;;
14100;SDS011;7127;49.372;8.166;2022-09-03T23:31:37;1.20;;;1.10;;
14100;SDS011;7127;49.372;8.166;2022-09-03T23:34:05;1.30;;;1.20;;
14100;SDS011;7127;49.372;8.166;2022-09-03T23:36:38;1.20;;;1.10;;
14100;SDS011;7127;49.372;8.166;2022-09-03T23:39:21;1.10;;;1.00;;
14100;SDS011;7127;49.372;8.166;2022-09-03T23:42:00;1.10;;;1.00;;
14100;SDS011;7127;49.372;8.166;2022-09-03T23:44:36;1.60;;;1.10;;
14100;SDS011;7127;49.372;8.166;2022-09-03T23:47:17;1.50;;;1.03;;
14100;SDS011;7127;49.372;8.166;2022-09-03T23:49:51;1.07;;;1.00;;
14100;SDS011;7127;49.372;8.166;2022-09-03T23:52:31;2.30;;;0.90;;
14100;SDS011;7127;49.372;8.166;2022-09-03T23:55:08;0.93;;;0.87;;
14100;SDS011;7127;49.372;8.166;2022-09-03T23:57:46;0.90;;;0.90;;
